createdAt,value
2023-03-26T00:02:15.623Z,94721.00
2023-03-26T00:06:18.531Z,94723.00
2023-03-26T00:10:15.674Z,94719.00
2023-03-26T00:14:15.420Z,94717.00
2023-03-26T00:18:15.554Z,94729.00
2023-03-26T00:22:15.556Z,94715.00
2023-03-26T00:26:15.228Z,94713.00
2023-03-26T00:30:15.265Z,94723.00
2023-03-26T00:34:15.187Z,94729.00
2023-03-26T00:38:16.021Z,94709.00
2023-03-26T00:42:26.031Z,94699.00
2023-03-26T00:46:15.219Z,94707.00
2023-03-26T00:50:15.627Z,94703.00
2023-03-26T00:54:15.999Z,94699.00
2023-03-26T00:58:17.587Z,94705.00
2023-03-26T01:02:15.441Z,94696.00
2023-03-26T01:06:15.436Z,94684.00
2023-03-26T01:10:15.270Z,94678.00
2023-03-26T01:14:15.323Z,94682.00
2023-03-26T01:18:17.381Z,94680.00
2023-03-26T01:22:15.583Z,94684.00
2023-03-26T01:26:15.213Z,94684.00
2023-03-26T01:30:15.347Z,94680.00
2023-03-26T01:34:15.240Z,94676.00
2023-03-26T01:38:15.389Z,94666.00
2023-03-26T01:42:15.198Z,94654.00
2023-03-26T01:46:15.193Z,94658.00
2023-03-26T01:50:15.051Z,94666.00
2023-03-26T01:54:14.993Z,94662.00
2023-03-26T01:58:14.955Z,94668.00
2023-03-26T02:02:15.023Z,94666.00
2023-03-26T02:06:15.073Z,94668.00
2023-03-26T02:10:15.183Z,94670.00
2023-03-26T02:14:15.059Z,94670.00
2023-03-26T02:18:16.063Z,94682.00
2023-03-26T02:22:15.655Z,94680.00
2023-03-26T02:26:15.449Z,94666.00
2023-03-26T02:30:16.307Z,94670.00
2023-03-26T02:34:16.108Z,94670.00
2023-03-26T02:38:16.609Z,94674.00
2023-03-26T02:42:17.086Z,94664.00
2023-03-26T02:46:16.638Z,94666.00
2023-03-26T02:50:16.611Z,94654.00
2023-03-26T02:54:16.177Z,94656.00
2023-03-26T02:58:16.064Z,94660.00
2023-03-26T03:02:17.743Z,94654.00
2023-03-26T03:06:16.193Z,94654.00
2023-03-26T03:10:15.987Z,94652.00
2023-03-26T03:14:16.229Z,94637.00
2023-03-26T03:18:16.320Z,94635.00
2023-03-26T03:22:16.216Z,94635.00
2023-03-26T03:26:16.317Z,94631.00
2023-03-26T03:30:16.611Z,94625.00
2023-03-26T03:34:16.337Z,94619.00
2023-03-26T03:38:16.242Z,94613.00
2023-03-26T03:42:16.360Z,94607.00
2023-03-26T03:46:16.761Z,94613.00
2023-03-26T03:50:16.442Z,94621.00
2023-03-26T03:54:16.613Z,94609.00
2023-03-26T03:58:16.483Z,94601.00
2023-03-26T04:02:16.636Z,94596.00
2023-03-26T04:06:16.648Z,94596.00
2023-03-26T04:10:16.655Z,94603.00
2023-03-26T04:14:16.801Z,94598.00
2023-03-26T04:18:16.959Z,94592.00
2023-03-26T04:22:17.149Z,94590.00
2023-03-26T04:26:17.085Z,94584.00
2023-03-26T04:30:17.631Z,94578.00
2023-03-26T04:34:17.307Z,94570.00
2023-03-26T04:38:17.402Z,94566.00
2023-03-26T04:42:17.663Z,94564.00
2023-03-26T04:46:17.626Z,94558.00
2023-03-26T04:50:17.725Z,94551.00
2023-03-26T04:54:17.876Z,94551.00
2023-03-26T04:58:18.007Z,94539.00
2023-03-26T05:02:18.110Z,94533.00
2023-03-26T05:06:18.137Z,94525.00
2023-03-26T05:10:18.288Z,94523.00
2023-03-26T05:14:18.417Z,94523.00
2023-03-26T05:18:18.638Z,94529.00
2023-03-26T05:22:19.067Z,94537.00
2023-03-26T05:26:19.126Z,94537.00
2023-03-26T05:30:19.021Z,94537.00
2023-03-26T05:34:19.035Z,94535.00
2023-03-26T05:38:19.110Z,94533.00
2023-03-26T05:42:19.761Z,94521.00
2023-03-26T05:46:19.775Z,94513.00
2023-03-26T05:50:19.744Z,94504.00
2023-03-26T05:54:20.076Z,94498.00
2023-03-26T05:58:20.014Z,94486.00
2023-03-26T06:02:20.699Z,94480.00
2023-03-26T06:06:20.444Z,94476.00
2023-03-26T06:10:20.467Z,94476.00
2023-03-26T06:14:20.521Z,94470.00
2023-03-26T06:18:21.205Z,94462.00
2023-03-26T06:22:20.787Z,94460.00
2023-03-26T06:26:20.884Z,94454.00
2023-03-26T06:30:20.982Z,94445.00
2023-03-26T06:34:21.662Z,94447.00
2023-03-26T06:38:21.257Z,94452.00
2023-03-26T06:42:21.369Z,94437.00
2023-03-26T06:46:22.438Z,94443.00
2023-03-26T06:50:21.237Z,94421.00
2023-03-26T06:54:21.249Z,94411.00
2023-03-26T06:58:21.581Z,94415.00
2023-03-26T07:02:21.624Z,94403.00
2023-03-26T07:06:21.654Z,94392.00
2023-03-26T07:10:21.799Z,94368.00
2023-03-26T07:14:22.144Z,94358.00
2023-03-26T07:18:22.022Z,94341.00
2023-03-26T07:22:22.438Z,94329.00
2023-03-26T07:26:21.811Z,94333.00
2023-03-26T07:30:21.929Z,94343.00
2023-03-26T07:34:22.205Z,94347.00
2023-03-26T07:38:22.059Z,94347.00
2023-03-26T07:42:22.130Z,94333.00
2023-03-26T07:50:52.491Z,94317.00
2023-03-26T07:54:42.060Z,94290.00
2023-03-26T07:58:42.332Z,94268.00
2023-03-26T08:02:41.984Z,94255.00
2023-03-26T08:11:01.669Z,94227.00
2023-03-26T08:15:01.609Z,94223.00
2023-03-26T08:19:01.581Z,94227.00
2023-03-26T08:23:01.534Z,94229.00
2023-03-26T08:27:01.509Z,94229.00
2023-03-26T08:31:01.560Z,94211.00
2023-03-26T08:35:01.436Z,94196.00
2023-03-26T08:39:01.405Z,94182.00
2023-03-26T08:43:01.711Z,94168.00
2023-03-26T08:47:02.122Z,94172.00
2023-03-26T08:51:01.595Z,94157.00
2023-03-26T08:55:01.634Z,94143.00
2023-03-26T08:59:01.458Z,94143.00
2023-03-26T09:03:01.512Z,94123.00
2023-03-26T09:07:01.274Z,94123.00
2023-03-26T09:11:01.400Z,94141.00
2023-03-26T09:15:01.405Z,94141.00
2023-03-26T09:19:01.376Z,94143.00
2023-03-26T09:23:01.241Z,94139.00
2023-03-26T09:27:01.464Z,94143.00
2023-03-26T09:31:01.450Z,94147.00
2023-03-26T09:35:01.223Z,94141.00
2023-03-26T09:39:01.099Z,94147.00
2023-03-26T09:43:01.062Z,94123.00
2023-03-26T09:47:01.468Z,94114.00
2023-03-26T09:51:00.996Z,94102.00
2023-03-26T09:55:01.475Z,94098.00
2023-03-26T09:59:01.002Z,94088.00
2023-03-26T10:03:00.949Z,94080.00
2023-03-26T10:07:00.887Z,94074.00
2023-03-26T10:11:00.987Z,94063.00
2023-03-26T10:15:00.742Z,94070.00
2023-03-26T10:19:00.927Z,94061.00
2023-03-26T10:23:00.975Z,94053.00
2023-03-26T10:27:08.767Z,94049.00
2023-03-26T10:31:02.200Z,94057.00
2023-03-26T10:35:01.332Z,94059.00
2023-03-26T10:39:01.429Z,94051.00
2023-03-26T10:43:01.598Z,94057.00
2023-03-26T10:47:02.013Z,94057.00
2023-03-26T10:51:01.738Z,94051.00
2023-03-26T10:55:01.723Z,94047.00
2023-03-26T10:59:01.698Z,94049.00
2023-03-26T11:03:01.630Z,94049.00
2023-03-26T11:07:02.772Z,94047.00
2023-03-26T11:11:01.594Z,94047.00
2023-03-26T11:19:21.665Z,94027.00
2023-03-26T11:23:21.462Z,94016.00
2023-03-26T11:27:23.750Z,94018.00
2023-03-26T11:31:21.363Z,94006.00
2023-03-26T11:35:40.639Z,94004.00
2023-03-26T11:39:22.097Z,93992.00
2023-03-26T11:43:21.533Z,93992.00
2023-03-26T11:47:21.201Z,93978.00
2023-03-26T11:51:21.391Z,93965.00
2023-03-26T11:55:21.518Z,93965.00
2023-03-26T11:59:22.002Z,93955.00
2023-03-26T12:03:21.683Z,93957.00
2023-03-26T12:07:21.641Z,93951.00
2023-03-26T12:11:21.611Z,93953.00
2023-03-26T12:15:21.502Z,93935.00
2023-03-26T12:19:21.511Z,93927.00
2023-03-26T12:23:21.556Z,93927.00
2023-03-26T12:27:21.420Z,93929.00
2023-03-26T12:31:21.441Z,93943.00
2023-03-26T12:35:21.515Z,93947.00
2023-03-26T12:40:07.770Z,93943.00
2023-03-26T12:44:53.051Z,93951.00
2023-03-26T12:47:59.882Z,93945.00
2023-03-26T12:51:22.318Z,93943.00
2023-03-26T12:55:21.321Z,93939.00
2023-03-26T12:59:34.511Z,93953.00
2023-03-26T13:03:32.045Z,93970.00
2023-03-26T13:07:21.079Z,93986.00
2023-03-26T13:11:21.076Z,93984.00
2023-03-26T13:15:21.050Z,94008.00
2023-03-26T13:19:20.978Z,94010.00
2023-03-26T13:23:20.975Z,94018.00
2023-03-26T13:27:20.961Z,94018.00
2023-03-26T13:31:21.317Z,94027.00
2023-03-26T13:35:21.484Z,94027.00
2023-03-26T13:39:21.598Z,94029.00
2023-03-26T13:43:22.366Z,94014.00
2023-03-26T13:47:22.075Z,94020.00
2023-03-26T13:51:22.220Z,94023.00
2023-03-26T13:55:22.239Z,94016.00
2023-03-26T13:59:22.374Z,94006.00
2023-03-26T14:03:21.943Z,94008.00
2023-03-26T14:07:21.885Z,94010.00
2023-03-26T14:11:21.936Z,94014.00
2023-03-26T14:15:21.876Z,94020.00
2023-03-26T14:19:21.707Z,94016.00
2023-03-26T14:23:21.801Z,94016.00
2023-03-26T14:27:22.112Z,94016.00
2023-03-26T14:31:21.660Z,94010.00
2023-03-26T14:35:21.885Z,94010.00
2023-03-26T14:39:21.792Z,93996.00
2023-03-26T14:43:21.793Z,93992.00
2023-03-26T14:47:22.279Z,93988.00
2023-03-26T15:00:01.481Z,94008.00
2023-03-26T15:04:01.321Z,94004.00
2023-03-26T15:08:01.293Z,94016.00
2023-03-26T15:12:13.193Z,94018.00
2023-03-26T15:16:02.278Z,94008.00
2023-03-26T15:20:01.712Z,94006.00
2023-03-26T15:24:01.705Z,94012.00
2023-03-26T15:28:01.191Z,94012.00
2023-03-26T15:32:01.890Z,94010.00
2023-03-26T15:36:01.265Z,93990.00
2023-03-26T15:40:01.672Z,93972.00
2023-03-26T15:44:23.310Z,93970.00
2023-03-26T15:48:02.654Z,93963.00
2023-03-26T15:52:01.629Z,93935.00
2023-03-26T15:56:01.053Z,93939.00
2023-03-26T16:00:01.090Z,93937.00
2023-03-26T16:04:01.040Z,93939.00
2023-03-26T16:08:01.128Z,93935.00
2023-03-26T16:12:01.589Z,93941.00
2023-03-26T16:16:01.490Z,93939.00
2023-03-26T16:20:01.704Z,93939.00
2023-03-26T16:24:01.585Z,93941.00
2023-03-26T16:28:02.171Z,93949.00
2023-03-26T16:32:01.933Z,93929.00
2023-03-26T16:36:02.444Z,93914.00
2023-03-26T16:40:02.214Z,93904.00
2023-03-26T16:44:02.632Z,93894.00
2023-03-26T16:48:02.575Z,93888.00
2023-03-26T16:52:03.135Z,93876.00
2023-03-26T16:56:03.121Z,93882.00
2023-03-26T17:00:06.335Z,93886.00
2023-03-26T17:04:03.166Z,93906.00
2023-03-26T17:08:03.179Z,93902.00
2023-03-26T17:12:03.150Z,93902.00
2023-03-26T17:16:02.718Z,93898.00
2023-03-26T17:20:02.751Z,93894.00
2023-03-26T17:24:02.765Z,93906.00
2023-03-26T17:28:03.136Z,93900.00
2023-03-26T17:32:02.695Z,93894.00
2023-03-26T17:36:02.695Z,93904.00
2023-03-26T17:40:02.596Z,93898.00
2023-03-26T17:44:02.578Z,93884.00
2023-03-26T17:48:02.655Z,93886.00
2023-03-26T17:52:02.493Z,93890.00
2023-03-26T17:56:02.448Z,93918.00
2023-03-26T18:00:02.430Z,93929.00
2023-03-26T18:04:02.631Z,93937.00
2023-03-26T18:08:02.358Z,93941.00
2023-03-26T18:12:02.333Z,93951.00
2023-03-26T18:16:02.394Z,93961.00
2023-03-26T18:20:02.425Z,93974.00
2023-03-26T18:24:02.504Z,93949.00
2023-03-26T18:28:02.906Z,93918.00
2023-03-26T18:32:12.322Z,93906.00
2023-03-26T18:36:02.225Z,93920.00
2023-03-26T18:40:02.208Z,93927.00
2023-03-26T18:44:02.181Z,93910.00
2023-03-26T18:48:02.334Z,93914.00
2023-03-26T18:52:02.094Z,93908.00
2023-03-26T18:56:02.218Z,93910.00
2023-03-26T19:00:02.215Z,93910.00
2023-03-26T19:04:02.726Z,93920.00
2023-03-26T19:08:02.667Z,93925.00
2023-03-26T19:12:02.824Z,93912.00
2023-03-26T19:16:03.153Z,93914.00
2023-03-26T19:20:03.200Z,93916.00
2023-03-26T19:24:03.400Z,93927.00
2023-03-26T19:28:04.286Z,93933.00
2023-03-26T19:32:03.797Z,93943.00
2023-03-26T19:36:04.186Z,93939.00
2023-03-26T19:40:04.282Z,93931.00
2023-03-26T19:44:04.673Z,93937.00
2023-03-26T19:48:14.147Z,93927.00
2023-03-26T19:52:05.746Z,93923.00
2023-03-26T19:56:05.948Z,93918.00
2023-03-26T20:00:04.492Z,93916.00
2023-03-26T20:04:04.815Z,93916.00
2023-03-26T20:08:04.320Z,93914.00
2023-03-26T20:12:04.671Z,93908.00
2023-03-26T20:16:04.819Z,93906.00
2023-03-26T20:20:04.793Z,93910.00
2023-03-26T20:24:04.428Z,93920.00
2023-03-26T20:28:04.390Z,93920.00
2023-03-26T20:32:04.781Z,93923.00
2023-03-26T20:36:04.725Z,93921.00
2023-03-26T20:40:04.312Z,93925.00
2023-03-26T20:44:04.217Z,93923.00
2023-03-26T20:48:04.205Z,93923.00
2023-03-26T20:52:04.318Z,93914.00
2023-03-26T20:56:04.309Z,93920.00
2023-03-26T21:00:04.023Z,93929.00
2023-03-26T21:04:03.990Z,93925.00
2023-03-26T21:08:03.965Z,93920.00
2023-03-26T21:12:04.203Z,93923.00
2023-03-26T21:16:03.878Z,93923.00
2023-03-26T21:20:03.847Z,93918.00
2023-03-26T21:24:03.773Z,93916.00
2023-03-26T21:28:03.819Z,93916.00
2023-03-26T21:32:03.765Z,93914.00
2023-03-26T21:36:03.953Z,93914.00
2023-03-26T21:40:03.829Z,93912.00
2023-03-26T21:44:04.083Z,93916.00
2023-03-26T21:48:03.775Z,93912.00
2023-03-26T21:52:03.915Z,93910.00
2023-03-26T21:56:03.793Z,93906.00
2023-03-26T22:00:03.946Z,93908.00
2023-03-26T22:04:04.022Z,93908.00
2023-03-26T22:08:03.850Z,93906.00
2023-03-26T22:12:03.830Z,93908.00
2023-03-26T22:16:03.874Z,93906.00
2023-03-26T22:20:03.790Z,93906.00
2023-03-26T22:24:03.913Z,93902.00
2023-03-26T22:28:03.905Z,93896.00
2023-03-26T22:32:15.810Z,93890.00
2023-03-26T22:36:23.348Z,93894.00
2023-03-26T22:40:23.600Z,93888.00
2023-03-26T22:44:23.906Z,93882.00
2023-03-26T22:48:23.530Z,93884.00
2023-03-26T22:52:23.812Z,93884.00
2023-03-26T22:56:23.891Z,93882.00
2023-03-26T23:00:24.312Z,93867.00
2023-03-26T23:04:30.322Z,93874.00
2023-03-26T23:08:24.874Z,93867.00
2023-03-26T23:12:23.807Z,93880.00
2023-03-26T23:16:23.389Z,93878.00
2023-03-26T23:20:23.385Z,93884.00
2023-03-26T23:24:23.362Z,93886.00
2023-03-26T23:28:23.494Z,93880.00
2023-03-26T23:32:24.900Z,93874.00
2023-03-26T23:36:23.702Z,93865.00
2023-03-26T23:40:23.895Z,93880.00
2023-03-26T23:44:23.921Z,93874.00
2023-03-26T23:48:24.434Z,93876.00
2023-03-26T23:52:24.342Z,93880.00
2023-03-26T23:56:24.296Z,93886.00
